sensor_id;sensor_type;location;lat;lon;timestamp;P1;durP1;ratioP1;P2;durP2;ratioP2
15192;SDS011;7697;51.630;7.484;2023-01-19T00:03:53;15.30;;;8.80;;
15192;SDS011;7697;51.630;7.484;2023-01-19T00:08:56;11.60;;;7.73;;
15192;SDS011;7697;51.630;7.484;2023-01-19T00:13:58;11.83;;;8.63;;
15192;SDS011;7697;51.630;7.484;2023-01-19T00:18:59;14.97;;;8.93;;
15192;SDS011;7697;51.630;7.484;2023-01-19T00:24:02;10.67;;;8.10;;
15192;SDS011;7697;51.630;7.484;2023-01-19T00:29:04;10.67;;;8.03;;
15192;SDS011;7697;51.630;7.484;2023-01-19T00:34:06;10.70;;;7.80;;
15192;SDS011;7697;51.630;7.484;2023-01-19T00:39:10;12.20;;;8.43;;
15192;SDS011;7697;51.630;7.484;2023-01-19T00:44:12;13.90;;;9.07;;
15192;SDS011;7697;51.630;7.484;2023-01-19T00:49:14;12.27;;;8.17;;
15192;SDS011;7697;51.630;7.484;2023-01-19T00:54:17;12.07;;;7.83;;
15192;SDS011;7697;51.630;7.484;2023-01-19T00:59:18;10.80;;;8.13;;
15192;SDS011;7697;51.630;7.484;2023-01-19T01:04:20;10.37;;;7.90;;
15192;SDS011;7697;51.630;7.484;2023-01-19T01:09:23;11.90;;;8.47;;
15192;SDS011;7697;51.630;7.484;2023-01-19T01:14:24;10.23;;;8.43;;
15192;SDS011;7697;51.630;7.484;2023-01-19T01:19:26;12.87;;;8.27;;
15192;SDS011;7697;51.630;7.484;2023-01-19T01:24:30;11.17;;;8.60;;
15192;SDS011;7697;51.630;7.484;2023-01-19T01:29:32;10.17;;;8.73;;
15192;SDS011;7697;51.630;7.484;2023-01-19T01:34:34;10.90;;;8.03;;
15192;SDS011;7697;51.630;7.484;2023-01-19T01:39:37;10.27;;;8.27;;
15192;SDS011;7697;51.630;7.484;2023-01-19T01:50:01;12.70;;;8.80;;
15192;SDS011;7697;51.630;7.484;2023-01-19T01:55:08;14.40;;;9.63;;
15192;SDS011;7697;51.630;7.484;2023-01-19T02:00:11;10.10;;;8.87;;
15192;SDS011;7697;51.630;7.484;2023-01-19T02:05:15;11.33;;;8.53;;
15192;SDS011;7697;51.630;7.484;2023-01-19T02:10:20;10.23;;;8.10;;
15192;SDS011;7697;51.630;7.484;2023-01-19T02:15:40;9.83;;;7.83;;
15192;SDS011;7697;51.630;7.484;2023-01-19T02:20:42;13.03;;;7.77;;
15192;SDS011;7697;51.630;7.484;2023-01-19T02:25:50;10.90;;;8.60;;
15192;SDS011;7697;51.630;7.484;2023-01-19T02:30:53;11.73;;;8.47;;
15192;SDS011;7697;51.630;7.484;2023-01-19T02:35:55;12.67;;;9.80;;
15192;SDS011;7697;51.630;7.484;2023-01-19T02:40:59;12.20;;;8.50;;
15192;SDS011;7697;51.630;7.484;2023-01-19T02:46:03;11.97;;;8.47;;
15192;SDS011;7697;51.630;7.484;2023-01-19T02:51:08;12.13;;;8.57;;
15192;SDS011;7697;51.630;7.484;2023-01-19T03:01:54;14.30;;;9.10;;
15192;SDS011;7697;51.630;7.484;2023-01-19T03:07:08;15.47;;;8.93;;
15192;SDS011;7697;51.630;7.484;2023-01-19T03:12:14;15.37;;;8.43;;
15192;SDS011;7697;51.630;7.484;2023-01-19T03:17:25;14.63;;;9.23;;
15192;SDS011;7697;51.630;7.484;2023-01-19T03:22:31;17.67;;;9.40;;
15192;SDS011;7697;51.630;7.484;2023-01-19T03:27:32;11.77;;;8.33;;
15192;SDS011;7697;51.630;7.484;2023-01-19T03:32:42;12.37;;;8.93;;
15192;SDS011;7697;51.630;7.484;2023-01-19T03:37:51;11.10;;;7.93;;
15192;SDS011;7697;51.630;7.484;2023-01-19T03:42:57;10.10;;;7.77;;
15192;SDS011;7697;51.630;7.484;2023-01-19T03:48:01;10.73;;;7.80;;
15192;SDS011;7697;51.630;7.484;2023-01-19T03:53:05;9.43;;;7.43;;
15192;SDS011;7697;51.630;7.484;2023-01-19T03:58:07;12.00;;;7.33;;
15192;SDS011;7697;51.630;7.484;2023-01-19T04:03:11;9.57;;;7.07;;
15192;SDS011;7697;51.630;7.484;2023-01-19T04:08:14;11.13;;;7.23;;
15192;SDS011;7697;51.630;7.484;2023-01-19T04:13:16;12.47;;;7.63;;
15192;SDS011;7697;51.630;7.484;2023-01-19T04:18:19;10.83;;;7.57;;
15192;SDS011;7697;51.630;7.484;2023-01-19T04:23:21;12.37;;;8.20;;
15192;SDS011;7697;51.630;7.484;2023-01-19T04:28:23;11.57;;;7.60;;
15192;SDS011;7697;51.630;7.484;2023-01-19T04:33:26;11.00;;;6.97;;
15192;SDS011;7697;51.630;7.484;2023-01-19T04:38:28;10.97;;;7.63;;
15192;SDS011;7697;51.630;7.484;2023-01-19T04:43:30;11.90;;;7.90;;
15192;SDS011;7697;51.630;7.484;2023-01-19T04:53:36;12.30;;;7.50;;
15192;SDS011;7697;51.630;7.484;2023-01-19T04:58:37;12.07;;;7.13;;
15192;SDS011;7697;51.630;7.484;2023-01-19T05:03:40;14.97;;;8.40;;
15192;SDS011;7697;51.630;7.484;2023-01-19T05:08:42;14.20;;;8.17;;
15192;SDS011;7697;51.630;7.484;2023-01-19T05:13:44;13.57;;;8.50;;
15192;SDS011;7697;51.630;7.484;2023-01-19T05:18:47;13.70;;;8.80;;
15192;SDS011;7697;51.630;7.484;2023-01-19T05:23:49;17.00;;;8.17;;
15192;SDS011;7697;51.630;7.484;2023-01-19T05:28:50;11.00;;;7.40;;
15192;SDS011;7697;51.630;7.484;2023-01-19T05:33:53;11.03;;;8.17;;
15192;SDS011;7697;51.630;7.484;2023-01-19T05:38:55;8.83;;;6.90;;
15192;SDS011;7697;51.630;7.484;2023-01-19T05:59:49;9.60;;;6.90;;
15192;SDS011;7697;51.630;7.484;2023-01-19T06:04:51;7.57;;;6.47;;
15192;SDS011;7697;51.630;7.484;2023-01-19T06:09:53;9.50;;;5.90;;
15192;SDS011;7697;51.630;7.484;2023-01-19T06:14:56;8.03;;;6.20;;
15192;SDS011;7697;51.630;7.484;2023-01-19T06:19:58;8.13;;;6.47;;
15192;SDS011;7697;51.630;7.484;2023-01-19T06:24:59;7.87;;;6.77;;
15192;SDS011;7697;51.630;7.484;2023-01-19T06:30:02;7.00;;;6.00;;
15192;SDS011;7697;51.630;7.484;2023-01-19T06:35:05;6.53;;;5.33;;
15192;SDS011;7697;51.630;7.484;2023-01-19T06:40:08;7.73;;;5.93;;
15192;SDS011;7697;51.630;7.484;2023-01-19T06:45:12;10.03;;;6.10;;
15192;SDS011;7697;51.630;7.484;2023-01-19T06:55:24;8.53;;;5.80;;
15192;SDS011;7697;51.630;7.484;2023-01-19T07:00:27;8.73;;;5.90;;
15192;SDS011;7697;51.630;7.484;2023-01-19T07:05:29;11.37;;;7.17;;
15192;SDS011;7697;51.630;7.484;2023-01-19T07:10:31;8.47;;;6.13;;
15192;SDS011;7697;51.630;7.484;2023-01-19T07:15:34;8.23;;;6.27;;
15192;SDS011;7697;51.630;7.484;2023-01-19T07:20:36;9.27;;;5.80;;
15192;SDS011;7697;51.630;7.484;2023-01-19T07:25:38;8.27;;;6.17;;
15192;SDS011;7697;51.630;7.484;2023-01-19T07:30:41;6.30;;;5.23;;
15192;SDS011;7697;51.630;7.484;2023-01-19T07:35:45;7.93;;;6.37;;
15192;SDS011;7697;51.630;7.484;2023-01-19T07:40:47;6.57;;;5.87;;
15192;SDS011;7697;51.630;7.484;2023-01-19T07:45:51;6.93;;;6.00;;
15192;SDS011;7697;51.630;7.484;2023-01-19T07:56:06;9.23;;;7.47;;
15192;SDS011;7697;51.630;7.484;2023-01-19T08:06:33;8.63;;;7.40;;
15192;SDS011;7697;51.630;7.484;2023-01-19T08:11:37;12.70;;;8.70;;
15192;SDS011;7697;51.630;7.484;2023-01-19T08:16:38;14.07;;;8.87;;
15192;SDS011;7697;51.630;7.484;2023-01-19T08:21:41;11.97;;;9.23;;
15192;SDS011;7697;51.630;7.484;2023-01-19T08:26:45;14.77;;;10.20;;
15192;SDS011;7697;51.630;7.484;2023-01-19T08:31:47;11.50;;;8.97;;
15192;SDS011;7697;51.630;7.484;2023-01-19T08:36:50;15.47;;;9.77;;
15192;SDS011;7697;51.630;7.484;2023-01-19T08:41:52;15.20;;;9.60;;
15192;SDS011;7697;51.630;7.484;2023-01-19T08:46:54;12.77;;;9.83;;
15192;SDS011;7697;51.630;7.484;2023-01-19T08:51:57;17.00;;;10.03;;
15192;SDS011;7697;51.630;7.484;2023-01-19T08:56:59;15.30;;;9.50;;
15192;SDS011;7697;51.630;7.484;2023-01-19T09:02:00;13.33;;;10.17;;
15192;SDS011;7697;51.630;7.484;2023-01-19T09:07:03;13.37;;;9.97;;
15192;SDS011;7697;51.630;7.484;2023-01-19T09:12:05;15.07;;;11.40;;
15192;SDS011;7697;51.630;7.484;2023-01-19T09:17:07;18.90;;;11.70;;
15192;SDS011;7697;51.630;7.484;2023-01-19T09:22:10;16.73;;;11.57;;
15192;SDS011;7697;51.630;7.484;2023-01-19T09:27:12;17.63;;;12.07;;
15192;SDS011;7697;51.630;7.484;2023-01-19T09:32:13;17.93;;;12.03;;
15192;SDS011;7697;51.630;7.484;2023-01-19T09:37:16;16.87;;;13.57;;
15192;SDS011;7697;51.630;7.484;2023-01-19T09:42:19;18.90;;;13.43;;
15192;SDS011;7697;51.630;7.484;2023-01-19T09:47:27;18.57;;;14.13;;
15192;SDS011;7697;51.630;7.484;2023-01-19T09:52:32;22.23;;;15.77;;
15192;SDS011;7697;51.630;7.484;2023-01-19T09:57:39;18.50;;;14.57;;
15192;SDS011;7697;51.630;7.484;2023-01-19T10:02:41;17.73;;;13.33;;
15192;SDS011;7697;51.630;7.484;2023-01-19T10:07:52;22.43;;;16.37;;
15192;SDS011;7697;51.630;7.484;2023-01-19T10:13:15;22.30;;;15.67;;
15192;SDS011;7697;51.630;7.484;2023-01-19T10:18:25;24.37;;;18.13;;
15192;SDS011;7697;51.630;7.484;2023-01-19T10:23:36;25.37;;;17.77;;
15192;SDS011;7697;51.630;7.484;2023-01-19T10:28:41;29.43;;;18.60;;
15192;SDS011;7697;51.630;7.484;2023-01-19T10:33:45;23.43;;;17.53;;
15192;SDS011;7697;51.630;7.484;2023-01-19T10:38:48;22.77;;;17.70;;
15192;SDS011;7697;51.630;7.484;2023-01-19T10:43:52;25.03;;;17.70;;
15192;SDS011;7697;51.630;7.484;2023-01-19T10:49:00;23.40;;;18.17;;
15192;SDS011;7697;51.630;7.484;2023-01-19T10:54:03;25.33;;;17.77;;
15192;SDS011;7697;51.630;7.484;2023-01-19T10:59:05;26.27;;;18.07;;
15192;SDS011;7697;51.630;7.484;2023-01-19T11:04:18;23.77;;;18.23;;
15192;SDS011;7697;51.630;7.484;2023-01-19T11:09:23;23.23;;;17.40;;
15192;SDS011;7697;51.630;7.484;2023-01-19T11:14:25;25.90;;;19.23;;
15192;SDS011;7697;51.630;7.484;2023-01-19T11:19:30;23.87;;;18.27;;
15192;SDS011;7697;51.630;7.484;2023-01-19T11:24:36;25.03;;;16.43;;
15192;SDS011;7697;51.630;7.484;2023-01-19T11:29:39;24.20;;;17.00;;
15192;SDS011;7697;51.630;7.484;2023-01-19T11:34:47;23.47;;;16.97;;
15192;SDS011;7697;51.630;7.484;2023-01-19T11:39:51;20.20;;;16.20;;
15192;SDS011;7697;51.630;7.484;2023-01-19T11:44:57;26.80;;;18.70;;
15192;SDS011;7697;51.630;7.484;2023-01-19T11:50:03;21.87;;;17.33;;
15192;SDS011;7697;51.630;7.484;2023-01-19T11:55:11;24.80;;;17.93;;
15192;SDS011;7697;51.630;7.484;2023-01-19T12:00:22;21.33;;;15.37;;
15192;SDS011;7697;51.630;7.484;2023-01-19T12:05:29;23.50;;;15.37;;
15192;SDS011;7697;51.630;7.484;2023-01-19T12:10:37;25.87;;;16.73;;
15192;SDS011;7697;51.630;7.484;2023-01-19T12:15:42;26.57;;;17.57;;
15192;SDS011;7697;51.630;7.484;2023-01-19T12:20:47;21.77;;;17.10;;
15192;SDS011;7697;51.630;7.484;2023-01-19T12:25:56;28.80;;;18.67;;
15192;SDS011;7697;51.630;7.484;2023-01-19T12:31:04;25.20;;;17.57;;
15192;SDS011;7697;51.630;7.484;2023-01-19T12:36:08;25.50;;;16.97;;
15192;SDS011;7697;51.630;7.484;2023-01-19T12:41:33;26.33;;;18.77;;
15192;SDS011;7697;51.630;7.484;2023-01-19T12:46:36;27.37;;;17.90;;
15192;SDS011;7697;51.630;7.484;2023-01-19T12:51:41;25.80;;;18.17;;
15192;SDS011;7697;51.630;7.484;2023-01-19T12:56:44;24.93;;;17.37;;
15192;SDS011;7697;51.630;7.484;2023-01-19T13:07:21;31.87;;;19.67;;
15192;SDS011;7697;51.630;7.484;2023-01-19T13:12:24;31.13;;;19.60;;
15192;SDS011;7697;51.630;7.484;2023-01-19T13:17:30;31.67;;;19.27;;
15192;SDS011;7697;51.630;7.484;2023-01-19T13:28:19;32.87;;;21.17;;
15192;SDS011;7697;51.630;7.484;2023-01-19T13:33:34;32.10;;;21.27;;
15192;SDS011;7697;51.630;7.484;2023-01-19T13:38:42;30.93;;;20.57;;
15192;SDS011;7697;51.630;7.484;2023-01-19T13:43:46;31.33;;;21.33;;
15192;SDS011;7697;51.630;7.484;2023-01-19T13:48:53;36.03;;;22.23;;
15192;SDS011;7697;51.630;7.484;2023-01-19T13:53:57;34.93;;;22.43;;
15192;SDS011;7697;51.630;7.484;2023-01-19T13:59:03;36.17;;;22.20;;
15192;SDS011;7697;51.630;7.484;2023-01-19T14:04:23;36.93;;;22.67;;
15192;SDS011;7697;51.630;7.484;2023-01-19T14:09:26;32.83;;;22.03;;
15192;SDS011;7697;51.630;7.484;2023-01-19T14:14:29;32.63;;;22.03;;
15192;SDS011;7697;51.630;7.484;2023-01-19T14:19:45;29.23;;;19.87;;
15192;SDS011;7697;51.630;7.484;2023-01-19T14:24:48;27.60;;;19.00;;
15192;SDS011;7697;51.630;7.484;2023-01-19T14:29:51;28.30;;;18.40;;
15192;SDS011;7697;51.630;7.484;2023-01-19T14:40:17;30.27;;;18.63;;
15192;SDS011;7697;51.630;7.484;2023-01-19T14:45:22;26.50;;;18.37;;
15192;SDS011;7697;51.630;7.484;2023-01-19T14:50:29;35.10;;;20.57;;
15192;SDS011;7697;51.630;7.484;2023-01-19T14:55:34;25.10;;;16.80;;
15192;SDS011;7697;51.630;7.484;2023-01-19T15:00:41;28.17;;;17.77;;
15192;SDS011;7697;51.630;7.484;2023-01-19T15:05:44;23.97;;;17.07;;
15192;SDS011;7697;51.630;7.484;2023-01-19T15:10:46;23.47;;;15.70;;
15192;SDS011;7697;51.630;7.484;2023-01-19T15:15:50;22.33;;;14.53;;
15192;SDS011;7697;51.630;7.484;2023-01-19T15:20:52;21.60;;;14.27;;
15192;SDS011;7697;51.630;7.484;2023-01-19T15:26:02;17.80;;;13.07;;
15192;SDS011;7697;51.630;7.484;2023-01-19T15:31:06;22.43;;;14.40;;
15192;SDS011;7697;51.630;7.484;2023-01-19T15:36:13;24.27;;;14.93;;
15192;SDS011;7697;51.630;7.484;2023-01-19T15:41:17;29.37;;;16.13;;
15192;SDS011;7697;51.630;7.484;2023-01-19T15:46:25;25.40;;;15.83;;
15192;SDS011;7697;51.630;7.484;2023-01-19T15:51:27;24.13;;;16.00;;
15192;SDS011;7697;51.630;7.484;2023-01-19T15:56:29;20.37;;;15.13;;
15192;SDS011;7697;51.630;7.484;2023-01-19T16:01:32;22.07;;;14.33;;
15192;SDS011;7697;51.630;7.484;2023-01-19T16:06:35;19.93;;;14.20;;
15192;SDS011;7697;51.630;7.484;2023-01-19T16:11:36;24.50;;;14.87;;
15192;SDS011;7697;51.630;7.484;2023-01-19T16:16:39;20.03;;;15.10;;
15192;SDS011;7697;51.630;7.484;2023-01-19T16:21:43;22.67;;;15.07;;
15192;SDS011;7697;51.630;7.484;2023-01-19T16:26:45;21.53;;;13.70;;
15192;SDS011;7697;51.630;7.484;2023-01-19T16:31:48;21.40;;;14.03;;
15192;SDS011;7697;51.630;7.484;2023-01-19T16:36:50;20.97;;;13.97;;
15192;SDS011;7697;51.630;7.484;2023-01-19T16:41:52;29.77;;;18.67;;
15192;SDS011;7697;51.630;7.484;2023-01-19T16:46:55;22.20;;;16.27;;
15192;SDS011;7697;51.630;7.484;2023-01-19T16:51:57;21.53;;;14.40;;
15192;SDS011;7697;51.630;7.484;2023-01-19T16:56:58;20.43;;;13.07;;
15192;SDS011;7697;51.630;7.484;2023-01-19T17:02:01;19.33;;;13.83;;
15192;SDS011;7697;51.630;7.484;2023-01-19T17:07:03;25.60;;;13.87;;
15192;SDS011;7697;51.630;7.484;2023-01-19T17:12:05;23.80;;;13.77;;
15192;SDS011;7697;51.630;7.484;2023-01-19T17:17:09;25.73;;;13.50;;
15192;SDS011;7697;51.630;7.484;2023-01-19T17:22:11;22.30;;;13.93;;
15192;SDS011;7697;51.630;7.484;2023-01-19T17:27:14;19.13;;;13.27;;
15192;SDS011;7697;51.630;7.484;2023-01-19T17:32:17;21.07;;;14.03;;
15192;SDS011;7697;51.630;7.484;2023-01-19T17:37:19;27.43;;;14.60;;
15192;SDS011;7697;51.630;7.484;2023-01-19T17:42:21;22.53;;;13.93;;
15192;SDS011;7697;51.630;7.484;2023-01-19T17:47:42;25.87;;;15.93;;
15192;SDS011;7697;51.630;7.484;2023-01-19T17:52:44;23.27;;;13.90;;
15192;SDS011;7697;51.630;7.484;2023-01-19T17:57:45;23.07;;;14.10;;
15192;SDS011;7697;51.630;7.484;2023-01-19T18:02:49;20.57;;;14.33;;
15192;SDS011;7697;51.630;7.484;2023-01-19T18:07:51;23.80;;;14.83;;
15192;SDS011;7697;51.630;7.484;2023-01-19T18:12:52;19.67;;;14.23;;
15192;SDS011;7697;51.630;7.484;2023-01-19T18:17:55;20.67;;;14.50;;
15192;SDS011;7697;51.630;7.484;2023-01-19T18:22:57;22.80;;;14.97;;
15192;SDS011;7697;51.630;7.484;2023-01-19T18:27:58;19.00;;;12.57;;
15192;SDS011;7697;51.630;7.484;2023-01-19T18:33:02;22.00;;;13.73;;
15192;SDS011;7697;51.630;7.484;2023-01-19T18:38:04;20.23;;;14.00;;
15192;SDS011;7697;51.630;7.484;2023-01-19T18:43:06;25.70;;;15.53;;
15192;SDS011;7697;51.630;7.484;2023-01-19T18:48:09;20.90;;;14.13;;
15192;SDS011;7697;51.630;7.484;2023-01-19T18:53:10;21.33;;;15.10;;
15192;SDS011;7697;51.630;7.484;2023-01-19T18:58:12;24.80;;;15.57;;
15192;SDS011;7697;51.630;7.484;2023-01-19T19:03:15;24.40;;;15.23;;
15192;SDS011;7697;51.630;7.484;2023-01-19T19:08:17;22.00;;;13.63;;
15192;SDS011;7697;51.630;7.484;2023-01-19T19:13:19;24.43;;;15.60;;
15192;SDS011;7697;51.630;7.484;2023-01-19T19:18:22;27.47;;;15.53;;
15192;SDS011;7697;51.630;7.484;2023-01-19T19:23:24;22.97;;;15.57;;
15192;SDS011;7697;51.630;7.484;2023-01-19T19:28:25;23.90;;;14.90;;
15192;SDS011;7697;51.630;7.484;2023-01-19T19:33:28;22.20;;;15.60;;
15192;SDS011;7697;51.630;7.484;2023-01-19T19:38:30;20.43;;;15.00;;
15192;SDS011;7697;51.630;7.484;2023-01-19T19:43:32;23.33;;;16.97;;
15192;SDS011;7697;51.630;7.484;2023-01-19T19:48:36;23.93;;;17.57;;
15192;SDS011;7697;51.630;7.484;2023-01-19T19:53:38;22.27;;;16.27;;
15192;SDS011;7697;51.630;7.484;2023-01-19T19:58:40;30.17;;;20.73;;
15192;SDS011;7697;51.630;7.484;2023-01-19T20:03:44;21.63;;;16.33;;
15192;SDS011;7697;51.630;7.484;2023-01-19T20:08:46;27.40;;;18.20;;
15192;SDS011;7697;51.630;7.484;2023-01-19T20:13:47;23.20;;;17.83;;
15192;SDS011;7697;51.630;7.484;2023-01-19T20:18:51;24.63;;;16.50;;
15192;SDS011;7697;51.630;7.484;2023-01-19T20:23:54;25.17;;;17.33;;
15192;SDS011;7697;51.630;7.484;2023-01-19T20:29:00;21.23;;;15.47;;
15192;SDS011;7697;51.630;7.484;2023-01-19T20:34:07;25.23;;;17.07;;
15192;SDS011;7697;51.630;7.484;2023-01-19T20:39:10;23.73;;;16.20;;
15192;SDS011;7697;51.630;7.484;2023-01-19T20:44:12;26.63;;;16.27;;
15192;SDS011;7697;51.630;7.484;2023-01-19T20:49:16;23.40;;;15.53;;
15192;SDS011;7697;51.630;7.484;2023-01-19T20:54:19;21.30;;;15.30;;
15192;SDS011;7697;51.630;7.484;2023-01-19T20:59:23;24.80;;;15.23;;
15192;SDS011;7697;51.630;7.484;2023-01-19T21:04:26;25.07;;;16.53;;
15192;SDS011;7697;51.630;7.484;2023-01-19T21:09:28;22.03;;;15.97;;
15192;SDS011;7697;51.630;7.484;2023-01-19T21:14:29;21.33;;;15.70;;
15192;SDS011;7697;51.630;7.484;2023-01-19T21:19:32;20.50;;;14.27;;
15192;SDS011;7697;51.630;7.484;2023-01-19T21:24:34;22.53;;;15.20;;
15192;SDS011;7697;51.630;7.484;2023-01-19T21:29:35;28.37;;;18.70;;
15192;SDS011;7697;51.630;7.484;2023-01-19T21:34:39;37.90;;;23.13;;
15192;SDS011;7697;51.630;7.484;2023-01-19T21:39:43;25.83;;;17.80;;
15192;SDS011;7697;51.630;7.484;2023-01-19T21:44:45;23.67;;;15.90;;
15192;SDS011;7697;51.630;7.484;2023-01-19T21:49:50;19.57;;;13.43;;
15192;SDS011;7697;51.630;7.484;2023-01-19T21:54:51;19.47;;;14.20;;
15192;SDS011;7697;51.630;7.484;2023-01-19T21:59:53;18.53;;;13.90;;
15192;SDS011;7697;51.630;7.484;2023-01-19T22:04:56;19.13;;;13.43;;
15192;SDS011;7697;51.630;7.484;2023-01-19T22:09:58;21.67;;;14.77;;
15192;SDS011;7697;51.630;7.484;2023-01-19T22:14:59;21.40;;;14.73;;
15192;SDS011;7697;51.630;7.484;2023-01-19T22:20:02;20.03;;;14.10;;
15192;SDS011;7697;51.630;7.484;2023-01-19T22:25:05;27.40;;;17.87;;
15192;SDS011;7697;51.630;7.484;2023-01-19T22:30:07;28.90;;;19.93;;
15192;SDS011;7697;51.630;7.484;2023-01-19T22:35:11;28.63;;;21.27;;
15192;SDS011;7697;51.630;7.484;2023-01-19T22:40:13;26.63;;;18.30;;
15192;SDS011;7697;51.630;7.484;2023-01-19T22:45:14;24.67;;;17.63;;
15192;SDS011;7697;51.630;7.484;2023-01-19T22:50:18;27.60;;;18.70;;
15192;SDS011;7697;51.630;7.484;2023-01-19T22:55:19;27.77;;;17.90;;
15192;SDS011;7697;51.630;7.484;2023-01-19T23:00:21;25.47;;;17.00;;
15192;SDS011;7697;51.630;7.484;2023-01-19T23:05:24;26.03;;;17.93;;
15192;SDS011;7697;51.630;7.484;2023-01-19T23:10:26;26.00;;;18.37;;
15192;SDS011;7697;51.630;7.484;2023-01-19T23:15:27;31.50;;;20.70;;
15192;SDS011;7697;51.630;7.484;2023-01-19T23:20:30;29.07;;;19.37;;
15192;SDS011;7697;51.630;7.484;2023-01-19T23:25:32;24.93;;;17.43;;
15192;SDS011;7697;51.630;7.484;2023-01-19T23:30:34;31.10;;;19.70;;
15192;SDS011;7697;51.630;7.484;2023-01-19T23:35:37;26.43;;;18.33;;
15192;SDS011;7697;51.630;7.484;2023-01-19T23:40:39;28.90;;;19.77;;
15192;SDS011;7697;51.630;7.484;2023-01-19T23:45:40;33.40;;;20.40;;
15192;SDS011;7697;51.630;7.484;2023-01-19T23:50:43;25.27;;;17.43;;
15192;SDS011;7697;51.630;7.484;2023-01-19T23:55:45;34.20;;;22.33;;
